createdAt,value
2022-10-04T00:00:46.658Z,79.11
2022-10-04T00:03:54.896Z,78.86
2022-10-04T00:07:03.511Z,78.84
2022-10-04T00:10:18.422Z,78.71
2022-10-04T00:13:27.041Z,79.08
2022-10-04T00:16:32.715Z,78.93
2022-10-04T00:19:43.162Z,78.21
2022-10-04T00:23:30.030Z,77.76
2022-10-04T00:27:14.274Z,77.35
2022-10-04T00:30:23.909Z,78.02
2022-10-04T00:33:37.075Z,78.38
2022-10-04T00:36:48.796Z,77.13
2022-10-04T00:40:02.202Z,78.92
2022-10-04T00:43:08.403Z,78.51
2022-10-04T00:46:14.602Z,77.90
2022-10-04T00:49:21.945Z,77.17
2022-10-04T00:52:27.705Z,77.86
2022-10-04T00:55:37.408Z,78.30
2022-10-04T00:58:49.566Z,77.32
2022-10-04T01:01:57.466Z,77.69
2022-10-04T01:05:03.893Z,77.68
2022-10-04T01:08:11.273Z,77.79
2022-10-04T01:11:19.745Z,77.57
2022-10-04T01:14:30.616Z,77.81
2022-10-04T01:17:33.339Z,77.71
2022-10-04T01:20:39.227Z,77.93
2022-10-04T01:23:45.882Z,77.83
2022-10-04T01:26:48.623Z,78.27
2022-10-04T01:29:51.880Z,78.54
2022-10-04T01:32:54.664Z,78.26
2022-10-04T01:35:57.720Z,78.27
2022-10-04T01:39:02.560Z,78.98
2022-10-04T01:42:09.608Z,79.13
2022-10-04T01:45:18.522Z,78.38
2022-10-04T01:48:25.348Z,79.52
2022-10-04T01:51:32.192Z,79.37
2022-10-04T01:54:40.341Z,78.15
2022-10-04T01:57:48.774Z,77.74
2022-10-04T02:00:58.010Z,77.63
2022-10-04T02:04:05.778Z,76.36
2022-10-04T02:07:13.676Z,76.63
2022-10-04T02:10:22.239Z,76.67
2022-10-04T02:13:30.078Z,76.87
2022-10-04T02:16:39.374Z,76.88
2022-10-04T02:19:45.114Z,75.87
2022-10-04T02:22:51.786Z,76.45
2022-10-04T02:25:56.004Z,75.48
2022-10-04T02:28:58.693Z,76.42
2022-10-04T02:32:19.584Z,76.17
2022-10-04T02:35:22.743Z,76.85
2022-10-04T02:38:31.299Z,75.97
2022-10-04T02:41:39.767Z,76.94
2022-10-04T02:44:45.809Z,76.75
2022-10-04T02:47:53.788Z,78.04
2022-10-04T02:51:03.334Z,78.22
2022-10-04T02:54:15.495Z,78.39
2022-10-04T02:57:22.267Z,77.55
2022-10-04T03:00:27.983Z,77.74
2022-10-04T03:03:32.658Z,78.64
2022-10-04T03:06:35.486Z,79.49
2022-10-04T03:09:39.290Z,79.11
2022-10-04T03:12:43.986Z,78.59
2022-10-04T03:15:48.313Z,78.16
2022-10-04T03:18:52.768Z,77.84
2022-10-04T03:21:58.764Z,79.13
2022-10-04T03:25:01.704Z,78.63
2022-10-04T03:28:05.862Z,78.96
2022-10-04T03:31:08.771Z,78.83
2022-10-04T03:34:16.831Z,77.60
2022-10-04T03:37:21.489Z,77.47
2022-10-04T03:40:27.183Z,77.93
2022-10-04T03:43:34.297Z,77.36
2022-10-04T03:46:37.734Z,78.89
2022-10-04T03:49:44.489Z,77.79
2022-10-04T03:52:54.774Z,77.67
2022-10-04T03:56:03.416Z,77.87
2022-10-04T03:59:09.990Z,78.17
2022-10-04T04:02:20.082Z,79.20
2022-10-04T04:05:27.412Z,78.88
2022-10-04T04:08:34.404Z,78.78
2022-10-04T04:11:37.801Z,79.02
2022-10-04T04:14:43.655Z,79.01
2022-10-04T04:17:48.631Z,78.80
2022-10-04T04:20:52.952Z,78.77
2022-10-04T04:23:59.630Z,78.92
2022-10-04T04:27:05.297Z,79.38
2022-10-04T04:30:16.374Z,77.46
2022-10-04T04:33:26.950Z,77.49
2022-10-04T04:36:31.653Z,79.02
2022-10-04T04:39:41.106Z,77.96
2022-10-04T04:42:45.529Z,77.87
2022-10-04T04:46:08.537Z,77.35
2022-10-04T04:49:12.816Z,78.29
2022-10-04T04:52:19.067Z,78.48
2022-10-04T04:55:24.871Z,79.33
2022-10-04T04:58:32.944Z,79.73
2022-10-04T05:01:42.886Z,79.11
2022-10-04T05:04:45.742Z,78.75
2022-10-04T05:07:48.944Z,77.71
2022-10-04T05:11:01.669Z,79.10
2022-10-04T05:14:06.950Z,79.56
2022-10-04T05:17:20.519Z,79.08
2022-10-04T05:20:23.349Z,79.82
2022-10-04T05:23:26.294Z,79.57
2022-10-04T05:26:31.531Z,79.47
2022-10-04T05:29:37.168Z,79.70
2022-10-04T05:32:54.475Z,79.70
2022-10-04T05:36:30.166Z,80.56
2022-10-04T05:39:38.997Z,80.68
2022-10-04T05:42:45.339Z,79.83
2022-10-04T05:45:48.728Z,79.94
2022-10-04T05:48:56.467Z,80.25
2022-10-04T05:52:02.049Z,80.53
2022-10-04T05:55:23.291Z,80.39
2022-10-04T05:58:48.343Z,80.00
2022-10-04T06:02:00.301Z,79.77
2022-10-04T06:05:14.200Z,78.39
2022-10-04T06:08:27.146Z,78.28
2022-10-04T06:11:45.214Z,77.55
2022-10-04T06:18:53.783Z,77.76
2022-10-04T06:22:15.870Z,78.03
2022-10-04T06:25:26.773Z,77.64
2022-10-04T06:28:34.766Z,78.07
2022-10-04T06:32:37.444Z,77.56
2022-10-04T06:36:01.898Z,77.55
2022-10-04T06:39:28.714Z,76.50
2022-10-04T06:42:51.252Z,76.85
2022-10-04T06:46:08.104Z,77.63
2022-10-04T06:49:26.587Z,76.51
2022-10-04T06:53:16.819Z,76.21
2022-10-04T06:56:33.643Z,76.11
2022-10-04T06:59:49.829Z,76.02
2022-10-04T07:02:58.745Z,76.12
2022-10-04T07:06:05.013Z,77.14
2022-10-04T07:09:17.668Z,77.33
2022-10-04T07:12:22.412Z,76.16
2022-10-04T07:15:29.139Z,75.97
2022-10-04T07:18:37.521Z,76.74
2022-10-04T07:21:47.978Z,75.85
2022-10-04T07:25:04.580Z,76.49
2022-10-04T07:28:33.588Z,75.95
2022-10-04T07:31:38.327Z,76.68
2022-10-04T07:34:46.617Z,76.57
2022-10-04T07:37:55.322Z,75.88
2022-10-04T07:41:12.121Z,76.46
2022-10-04T07:44:24.415Z,76.38
2022-10-04T07:47:27.941Z,76.52
2022-10-04T07:50:36.585Z,76.96
2022-10-04T07:53:44.790Z,76.32
2022-10-04T07:56:55.661Z,75.80
2022-10-04T08:00:06.821Z,75.34
2022-10-04T08:03:25.092Z,75.78
2022-10-04T08:06:35.691Z,74.29
2022-10-04T08:09:54.367Z,74.29
2022-10-04T08:13:05.850Z,71.81
2022-10-04T08:16:24.818Z,71.62
2022-10-04T08:19:43.871Z,72.18
2022-10-04T08:23:00.318Z,72.14
2022-10-04T08:26:16.906Z,72.39
2022-10-04T08:29:43.805Z,71.18
2022-10-04T08:33:01.666Z,71.60
2022-10-04T08:36:21.550Z,71.27
2022-10-04T08:39:40.194Z,70.50
2022-10-04T08:43:13.370Z,70.50
2022-10-04T08:46:47.436Z,70.28
2022-10-04T08:50:22.496Z,69.78
2022-10-04T08:54:20.508Z,69.04
2022-10-04T08:58:00.503Z,68.30
2022-10-04T09:01:40.151Z,67.87
2022-10-04T09:05:00.496Z,68.18
2022-10-04T09:08:32.942Z,68.07
2022-10-04T09:12:01.361Z,67.24
2022-10-04T09:15:35.540Z,66.64
2022-10-04T09:19:03.510Z,65.68
2022-10-04T09:22:20.373Z,65.51
2022-10-04T09:25:36.618Z,65.92
2022-10-04T09:29:13.108Z,66.04
2022-10-04T09:32:57.819Z,64.96
2022-10-04T09:36:16.199Z,63.09
2022-10-04T09:39:43.431Z,63.74
2022-10-04T09:43:07.954Z,62.42
2022-10-04T09:46:21.411Z,62.61
2022-10-04T09:49:52.291Z,62.00
2022-10-04T09:53:08.278Z,62.64
2022-10-04T09:56:27.791Z,62.02
2022-10-04T10:00:10.300Z,60.95
2022-10-04T10:03:46.115Z,61.15
2022-10-04T10:07:01.337Z,61.19
2022-10-04T10:10:34.259Z,60.34
2022-10-04T10:14:08.556Z,61.65
2022-10-04T10:17:20.568Z,61.83
2022-10-04T10:20:45.261Z,62.97
2022-10-04T10:24:20.382Z,63.56
2022-10-04T10:27:41.603Z,62.74
2022-10-04T10:31:05.553Z,62.04
2022-10-04T10:34:37.541Z,62.45
2022-10-04T10:37:51.143Z,62.97
2022-10-04T10:41:19.656Z,62.87
2022-10-04T10:44:38.084Z,63.32
2022-10-04T10:47:51.010Z,63.44
2022-10-04T10:51:03.722Z,62.34
2022-10-04T10:54:41.402Z,60.78
2022-10-04T10:58:09.507Z,60.68
2022-10-04T11:01:41.926Z,60.12
2022-10-04T11:04:54.770Z,61.36
2022-10-04T11:08:06.370Z,62.33
2022-10-04T11:11:22.888Z,62.32
2022-10-04T11:14:50.868Z,61.27
2022-10-04T11:18:30.556Z,60.97
2022-10-04T11:21:53.044Z,60.42
2022-10-04T11:25:37.050Z,58.18
2022-10-04T11:28:46.792Z,58.52
2022-10-04T11:32:13.122Z,57.50
2022-10-04T11:35:37.105Z,57.15
2022-10-04T11:38:52.859Z,57.12
2022-10-04T11:42:06.567Z,58.43
2022-10-04T11:45:33.295Z,56.85
2022-10-04T11:48:53.279Z,57.47
2022-10-04T11:52:16.796Z,58.16
2022-10-04T11:55:48.496Z,57.75
2022-10-04T11:59:08.484Z,57.96
2022-10-04T12:02:41.489Z,57.11
2022-10-04T12:06:10.224Z,54.66
2022-10-04T12:09:20.738Z,55.16
2022-10-04T12:12:51.537Z,53.78
2022-10-04T12:16:13.005Z,52.17
2022-10-04T12:20:00.278Z,54.77
2022-10-04T12:23:25.003Z,52.84
2022-10-04T12:26:46.641Z,54.33
2022-10-04T12:30:23.349Z,51.11
2022-10-04T12:33:35.202Z,52.76
2022-10-04T12:36:58.724Z,51.90
2022-10-04T12:40:28.998Z,51.84
2022-10-04T12:43:38.563Z,51.40
2022-10-04T12:46:56.584Z,52.19
2022-10-04T12:50:12.346Z,53.02
2022-10-04T12:53:24.126Z,54.04
2022-10-04T12:56:48.109Z,55.13
2022-10-04T12:59:59.228Z,55.35
2022-10-04T13:03:28.020Z,55.47
2022-10-04T13:06:43.913Z,55.30
2022-10-04T13:10:22.498Z,54.85
2022-10-04T13:13:41.195Z,53.75
2022-10-04T13:20:46.509Z,53.71
2022-10-04T13:24:02.593Z,53.80
2022-10-04T13:27:14.027Z,53.89
2022-10-04T13:30:24.382Z,54.08
2022-10-04T13:33:37.167Z,53.99
2022-10-04T13:36:54.187Z,52.39
2022-10-04T13:40:21.326Z,52.76
2022-10-04T13:43:43.954Z,53.79
2022-10-04T13:47:00.858Z,56.72
2022-10-04T13:50:28.040Z,53.73
2022-10-04T13:54:01.347Z,53.15
2022-10-04T13:57:28.866Z,52.33
2022-10-04T14:00:52.667Z,53.01
2022-10-04T14:04:14.879Z,53.47
2022-10-04T14:07:38.468Z,53.49
2022-10-04T14:11:08.873Z,53.20
2022-10-04T14:14:33.811Z,53.96
2022-10-04T14:18:04.582Z,53.55
2022-10-04T14:21:45.730Z,52.72
2022-10-04T14:25:27.143Z,53.84
2022-10-04T14:29:07.880Z,53.16
2022-10-04T14:32:36.881Z,51.87
2022-10-04T14:35:46.347Z,54.18
2022-10-04T14:39:16.545Z,53.80
2022-10-04T14:42:45.961Z,54.36
2022-10-04T14:46:08.223Z,55.89
2022-10-04T14:49:23.039Z,56.00
2022-10-04T14:52:39.094Z,55.69
2022-10-04T14:56:06.466Z,55.51
2022-10-04T14:59:23.092Z,55.36
2022-10-04T15:03:05.657Z,55.63
2022-10-04T15:06:22.358Z,56.10
2022-10-04T15:09:53.590Z,55.07
2022-10-04T15:13:12.376Z,55.75
2022-10-04T15:16:23.160Z,55.89
2022-10-04T15:19:30.515Z,55.82
2022-10-04T15:22:42.627Z,56.76
2022-10-04T15:25:47.474Z,57.53
2022-10-04T15:29:05.660Z,57.20
2022-10-04T15:32:24.193Z,56.80
2022-10-04T15:35:36.492Z,56.88
2022-10-04T15:38:51.534Z,57.52
2022-10-04T15:41:59.686Z,57.90
2022-10-04T15:45:23.297Z,58.18
2022-10-04T15:48:34.687Z,58.56
2022-10-04T15:52:03.125Z,58.92
2022-10-04T15:55:19.113Z,59.63
2022-10-04T15:58:52.051Z,60.45
2022-10-04T16:02:09.678Z,60.37
2022-10-04T16:05:22.005Z,61.40
2022-10-04T16:08:33.666Z,61.96
2022-10-04T16:12:06.101Z,63.03
2022-10-04T16:15:19.769Z,63.40
2022-10-04T16:18:45.001Z,63.56
2022-10-04T16:21:53.758Z,63.99
2022-10-04T16:24:59.902Z,64.42
2022-10-04T16:28:13.892Z,65.42
2022-10-04T16:31:25.914Z,66.20
2022-10-04T16:34:51.414Z,66.49
2022-10-04T16:41:36.507Z,68.20
2022-10-04T16:44:52.195Z,67.97
2022-10-04T16:47:58.709Z,68.32
2022-10-04T16:51:23.584Z,68.77
2022-10-04T16:54:43.073Z,68.86
2022-10-04T16:57:45.860Z,69.27
2022-10-04T17:00:50.381Z,69.50
2022-10-04T17:03:59.878Z,69.52
2022-10-04T17:07:15.918Z,70.33
2022-10-04T17:10:28.533Z,70.23
2022-10-04T17:13:36.814Z,70.02
2022-10-04T17:16:51.696Z,70.25
2022-10-04T17:20:00.536Z,70.41
2022-10-04T17:23:24.446Z,70.45
2022-10-04T17:26:43.618Z,70.63
2022-10-04T17:30:02.872Z,70.78
2022-10-04T17:33:24.235Z,70.51
2022-10-04T17:36:35.649Z,70.62
2022-10-04T17:39:45.444Z,71.25
2022-10-04T17:42:56.481Z,71.24
2022-10-04T17:46:13.566Z,71.67
2022-10-04T17:49:46.154Z,71.88
2022-10-04T17:53:12.864Z,71.46
2022-10-04T17:56:23.925Z,71.79
2022-10-04T17:59:31.211Z,71.62
2022-10-04T18:03:09.658Z,71.62
2022-10-04T18:06:21.316Z,71.33
2022-10-04T18:09:30.440Z,71.24
2022-10-04T18:12:37.509Z,71.44
2022-10-04T18:15:50.807Z,71.10
2022-10-04T18:18:53.640Z,71.44
2022-10-04T18:22:05.741Z,71.41
2022-10-04T18:25:15.049Z,71.12
2022-10-04T18:28:22.017Z,71.23
2022-10-04T18:31:33.894Z,71.17
2022-10-04T18:34:37.633Z,71.12
2022-10-04T18:37:41.775Z,69.87
2022-10-04T18:40:55.193Z,69.98
2022-10-04T18:44:13.956Z,69.97
2022-10-04T18:47:21.358Z,70.31
2022-10-04T18:50:34.266Z,70.53
2022-10-04T18:53:47.172Z,70.63
2022-10-04T18:57:00.547Z,70.27
2022-10-04T19:00:28.537Z,70.29
2022-10-04T19:03:39.945Z,70.56
2022-10-04T19:06:47.823Z,70.45
2022-10-04T19:10:03.541Z,71.04
2022-10-04T19:13:23.969Z,70.49
2022-10-04T19:16:41.537Z,70.71
2022-10-04T19:19:55.200Z,71.02
2022-10-04T19:23:07.429Z,71.13
2022-10-04T19:26:31.612Z,71.16
2022-10-04T19:29:49.458Z,71.70
2022-10-04T19:33:08.808Z,71.32
2022-10-04T19:36:24.668Z,71.33
2022-10-04T19:39:47.400Z,71.48
2022-10-04T19:43:01.542Z,71.45
2022-10-04T19:46:15.035Z,71.63
2022-10-04T19:49:26.592Z,71.60
2022-10-04T19:52:37.573Z,71.70
2022-10-04T19:55:49.673Z,71.72
2022-10-04T19:59:02.330Z,72.22
2022-10-04T20:02:09.512Z,72.08
2022-10-04T20:05:14.696Z,72.02
2022-10-04T20:08:38.622Z,71.93
2022-10-04T20:11:50.207Z,72.36
2022-10-04T20:14:52.792Z,71.63
2022-10-04T20:17:55.826Z,72.23
2022-10-04T20:21:06.728Z,72.36
2022-10-04T20:24:17.662Z,72.51
2022-10-04T20:27:53.579Z,72.58
2022-10-04T20:30:59.214Z,72.34
2022-10-04T20:34:33.399Z,72.44
2022-10-04T20:38:31.080Z,71.86
2022-10-04T20:42:03.167Z,72.02
2022-10-04T20:45:27.907Z,72.39
2022-10-04T20:48:33.047Z,72.46
2022-10-04T20:51:35.766Z,72.38
2022-10-04T20:54:38.394Z,72.54
2022-10-04T20:57:41.080Z,72.60
2022-10-04T21:00:52.823Z,72.67
2022-10-04T21:04:13.337Z,72.17
2022-10-04T21:07:20.138Z,72.18
2022-10-04T21:10:22.670Z,72.16
2022-10-04T21:13:49.570Z,71.42
2022-10-04T21:16:55.583Z,72.20
2022-10-04T21:20:02.616Z,72.18
2022-10-04T21:23:09.452Z,71.53
2022-10-04T21:26:22.662Z,71.84
2022-10-04T21:29:25.331Z,72.02
2022-10-04T21:32:29.298Z,71.75
2022-10-04T21:35:33.226Z,71.23
2022-10-04T21:38:35.969Z,70.95
2022-10-04T21:41:38.516Z,70.83
2022-10-04T21:44:41.241Z,70.49
2022-10-04T21:47:43.796Z,71.55
2022-10-04T21:50:47.856Z,72.16
2022-10-04T21:54:09.946Z,71.99
2022-10-04T21:57:13.111Z,71.24
2022-10-04T22:00:15.940Z,71.88
2022-10-04T22:03:18.503Z,72.54
2022-10-04T22:06:22.613Z,72.25
2022-10-04T22:09:25.132Z,72.67
2022-10-04T22:12:27.858Z,72.34
2022-10-04T22:15:30.604Z,72.50
2022-10-04T22:18:33.767Z,72.97
2022-10-04T22:21:37.807Z,72.58
2022-10-04T22:24:40.363Z,72.74
2022-10-04T22:27:43.333Z,72.99
2022-10-04T22:30:45.982Z,73.24
2022-10-04T22:33:50.637Z,73.09
2022-10-04T22:36:54.954Z,73.07
2022-10-04T22:39:57.871Z,73.45
2022-10-04T22:43:01.043Z,73.40
2022-10-04T22:46:03.743Z,72.94
2022-10-04T22:49:11.214Z,73.63
2022-10-04T22:52:25.769Z,73.72
2022-10-04T22:55:28.349Z,73.45
2022-10-04T22:58:32.592Z,72.97
2022-10-04T23:01:35.144Z,74.39
2022-10-04T23:04:37.849Z,73.48
2022-10-04T23:07:42.299Z,74.16
2022-10-04T23:10:45.261Z,73.82
2022-10-04T23:13:47.915Z,73.24
2022-10-04T23:16:50.806Z,74.05
2022-10-04T23:19:55.323Z,73.58
2022-10-04T23:23:00.744Z,73.87
2022-10-04T23:26:03.313Z,74.42
2022-10-04T23:29:07.710Z,74.34
2022-10-04T23:32:12.956Z,74.52
2022-10-04T23:35:20.804Z,74.38
2022-10-04T23:38:25.689Z,74.65
2022-10-04T23:41:28.256Z,74.06
2022-10-04T23:44:36.091Z,74.45
2022-10-04T23:47:38.841Z,73.96
2022-10-04T23:50:41.861Z,74.68
2022-10-04T23:53:48.641Z,74.73
2022-10-04T23:56:52.567Z,74.43
2022-10-04T23:59:55.333Z,74.44
